Search for airport 
image banner adimage banner ad
image banner ad

LEVC - Valencia/Manises

Located in Valencia, Spain

ICAO - LEVC, IATA - VLC

Data provided by Airmate  

General information

Coordinates: N39°29'22" W0°28'54"
Elevation is 239 feet MSL.
Magnetic variation is 1° East
Rated:
View ratings:
[VIEW]
View others Airports in Valencia

Operational data

Open for public use
Current time UTC:
Current local time:
Weather
METAR: LEVC 230730Z 25008KT 190V280 9999 FEW045 11/03 Q1015 NOSIG
TAF: TAF LEVC 230500Z 2306/2406 27015KT 9999 FEW030 TX17/2313Z TN06/2306Z TEMPO 2309/2316 29020G40KT
View NOTAMs / SUP AIP / TFR affecting this airport [VIEW]
Communications frequencies: [VIEW]

Runways:

RWY identifierQFULength (ft)Width (ft)SurfaceLDA (ft)
12116°10548148ASPH10548
30296°10548148ASPH9564

Airport contact information

Address: Valencia Spain

Aga Airlines Ground Assistance

Aga Airlines Ground Assistance

General Aviation Service

General Aviation Service
[VIEW][VIEW]
+34635855841

Gerardo Melendez Sl

Gerardo Melendez Sl
[VIEW][VIEW]
+34657883030

Skyvalet

Skyvalet

Swissport Handling S.A.

Swissport Handling S.A.

United Aviation

United Aviation
[VIEW][VIEW]
+34961598931

Other aviation service providers

Flight schools

Air Nostrum

Air Nostrum

Airpull Aviation S.L

Airpull Aviation S.L
ht@airpull.com +34961525139

Aviation club (not for profit)

Real Aeroclub De Valencia

Real Aeroclub De Valencia

Satellite view of LEVC